Terminal Aerodrome Forecast
Issued by NWS

Home | Current Version | Previous Version | Text Only | Print | Product List | Glossary Off
Versions: 1 2 3 4 5 6 7 8 9 10 11 12 13 14 15 16 17 18 19

877
FTUS43 KMPX 051742
TAFAXN
TAF
KAXN 051742Z 0518/0618 12012KT P6SM BKN100
     FM052200 15012KT P6SM OVC050
     FM060200 24015G27KT P6SM OVC015
     FM060600 25020G30KT P6SM OVC020
     FM061400 26022G34KT 4SM -SHSN OVC015
      TEMPO 0614/0618 1SM -SHSN OVC008=

USA.gov is the U.S. government's official web portal to all federal, state and local government web resources and services.